地図

経路データ

SID SEASON NUMBER BASIN SUBBASIN NAME ISO_TIME NATURE LAT LON WMO_WIND WMO_PRES WMO_AGENCY TRACK_TYPE DIST2LAND LANDFALL IFLAG USA_AGENCY USA_ATCF_ID USA_LAT USA_LON USA_RECORD USA_STATUS USA_WIND USA_PRES USA_SSHS USA_R34_NE USA_R34_SE USA_R34_SW USA_R34_NW USA_R50_NE USA_R50_SE USA_R50_SW USA_R50_NW USA_R64_NE USA_R64_SE USA_R64_SW USA_R64_NW USA_POCI USA_ROCI USA_RMW USA_EYE TOKYO_LAT TOKYO_LON TOKYO_GRADE TOKYO_WIND TOKYO_PRES TOKYO_R50_DIR TOKYO_R50_LONG TOKYO_R50_SHORT TOKYO_R30_DIR TOKYO_R30_LONG TOKYO_R30_SHORT TOKYO_LAND CMA_LAT CMA_LON CMA_CAT CMA_WIND CMA_PRES HKO_LAT HKO_LON HKO_CAT HKO_WIND HKO_PRES NEWDELHI_LAT NEWDELHI_LON NEWDELHI_GRADE NEWDELHI_WIND NEWDELHI_PRES NEWDELHI_CI NEWDELHI_DP NEWDELHI_POCI REUNION_LAT REUNION_LON REUNION_TYPE REUNION_WIND REUNION_PRES REUNION_TNUM REUNION_CI REUNION_RMW REUNION_R34_NE REUNION_R34_SE REUNION_R34_SW REUNION_R34_NW REUNION_R50_NE REUNION_R50_SE REUNION_R50_SW REUNION_R50_NW REUNION_R64_NE REUNION_R64_SE REUNION_R64_SW REUNION_R64_NW BOM_LAT BOM_LON BOM_TYPE BOM_WIND BOM_PRES BOM_TNUM BOM_CI BOM_RMW BOM_R34_NE BOM_R34_SE BOM_R34_SW BOM_R34_NW BOM_R50_NE BOM_R50_SE BOM_R50_SW BOM_R50_NW BOM_R64_NE BOM_R64_SE BOM_R64_SW BOM_R64_NW BOM_ROCI BOM_POCI BOM_EYE BOM_POS_METHOD BOM_PRES_METHOD NADI_LAT NADI_LON NADI_CAT NADI_WIND NADI_PRES WELLINGTON_LAT WELLINGTON_LON WELLINGTON_WIND WELLINGTON_PRES DS824_LAT DS824_LON DS824_STAGE DS824_WIND DS824_PRES TD9636_LAT TD9636_LON TD9636_STAGE TD9636_WIND TD9636_PRES TD9635_LAT TD9635_LON TD9635_WIND TD9635_PRES TD9635_ROCI NEUMANN_LAT NEUMANN_LON NEUMANN_CLASS NEUMANN_WIND NEUMANN_PRES MLC_LAT MLC_LON MLC_CLASS MLC_WIND MLC_PRES USA_GUST BOM_GUST BOM_GUST_PER REUNION_GUST REUNION_GUST_PER USA_SEAHGT USA_SEARAD_NE USA_SEARAD_SE USA_SEARAD_SW USA_SEARAD_NW STORM_SPEED STORM_DIR
1963023S15155 1963 11 SP EA NOT_NAMED 1963-01-22 23:00:00 NR -15.1000 155.000 main 686 686 __________O___ -1 -15.1000 155.000 7 9 136
1963023S15155 1963 11 SP EA NOT_NAMED 1963-01-23 00:00:00 TS -15.2065 155.107 main 702 702 O________OP___ jtwc_sh SH221963 -15.2000 155.100 -1 -15.2000 155.100 TC -15.2130 155.114 7 9 136
1963023S15155 1963 11 SP EA NOT_NAMED 1963-01-23 03:00:00 TS -15.5430 155.451 main 755 755 P________PP___ SH221963 -15.5326 155.447 -1 -15.5326 155.447 TC -15.5568 155.457 7 10 136
1963023S15155 1963 11 SP EA NOT_NAMED 1963-01-23 06:00:00 TS -15.9075 155.802 main 809 809 O________OP___ jtwc_sh SH221963 -15.9000 155.800 -1 -15.9000 155.800 TC -15.9188 155.804 7 10 139
1963023S15155 1963 11 SP EA NOT_NAMED 1963-01-23 09:00:00 TS -16.3225 156.158 main 825 825 P________PP___ SH221963 -16.3275 156.158 -1 -16.3275 156.158 TC -16.3127 156.159 7 11 142
1963023S15155 1963 11 SP EA NOT_NAMED 1963-01-23 11:00:00 TS -16.6260 156.393 main 845 845 P________PO___ SH221963 -16.6390 156.389 -1 -16.6390 156.389 TC -16.6000 156.400 7 11 144
1963023S15155 1963 11 SP EA NOT_NAMED 1963-01-23 12:00:00 TS -16.7841 156.507 main 861 833 O________OP___ jtwc_sh SH221963 -16.8000 156.500 -1 -16.8000 156.500 TC -16.7524 156.522 7 12 146
1963023S15155 1963 11 SP EA NOT_NAMED 1963-01-23 15:00:00 TS -17.2706 156.842 main 828 777 P________PP___ SH221963 -17.2850 156.823 -1 -17.2850 156.823 TC -17.2419 156.881 7 12 149
1963023S15155 1963 11 SP EA NOT_NAMED 1963-01-23 18:00:00 TS -17.7898 157.132 main 777 727 O________OP___ jtwc_sh SH221963 -17.8000 157.100 -1 -17.8000 157.100 TC -17.7695 157.195 7 12 154
1963023S15155 1963 11 SP EA NOT_NAMED 1963-01-23 21:00:00 TS -18.3310 157.385 main 727 704 P________PP___ SH221963 -18.3350 157.367 -1 -18.3350 157.367 TC -18.3229 157.420 7 12 160
1963023S15155 1963 11 SP EA NOT_NAMED 1963-01-23 23:00:00 TS -18.7055 157.486 main 704 698 P________PO___ SH221963 -18.7083 157.478 -1 -18.7083 157.478 TC -18.7000 157.500 7 12 170
1963023S15155 1963 11 SP EA NOT_NAMED 1963-01-24 00:00:00 TS -18.9101 157.499 main 698 689 O________OP___ jtwc_sh SH221963 -18.9000 157.500 -1 -18.9000 157.500 TC -18.9304 157.496 7 13 186
1963023S15155 1963 11 SP EA NOT_NAMED 1963-01-24 03:00:00 TS -19.5556 157.396 main 694 660 P________PP___ SH221963 -19.5075 157.403 -1 -19.5075 157.403 TC -19.6518 157.383 7 13 193
1963023S15155 1963 11 SP EA NOT_NAMED 1963-01-24 06:00:00 TS -20.1744 157.195 main 651 586 O________OP___ jtwc_sh SH221963 -20.1000 157.200 -1 -20.1000 157.200 TC -20.3233 157.186 7 13 196
1963023S15155 1963 11 SP EA NOT_NAMED 1963-01-24 09:00:00 TS -20.7793 157.015 main 586 562 P________PP___ SH221963 -20.7575 157.028 -1 -20.7575 157.028 TC -20.8228 156.989 7 11 197
1963023S15155 1963 11 SP EA NOT_NAMED 1963-01-24 11:00:00 TS -21.0314 156.922 main 562 553 P________PO___ SH221963 -21.0471 156.933 -1 -21.0471 156.933 TC -21.0000 156.900 7 6 204
1963023S15155 1963 11 SP EA NOT_NAMED 1963-01-24 12:00:00 TS -21.0579 156.890 main 553 553 O________OP___ jtwc_sh SH221963 -21.1000 156.900 -1 -21.1000 156.900 TC -20.9738 156.871 7 5 346
1963023S15155 1963 11 SP EA NOT_NAMED 1963-01-24 15:00:00 TS -20.7341 156.836 main 581 581 P________PP___ SH221963 -20.7624 156.840 -1 -20.7624 156.840 TC -20.6776 156.830 7 9 0
1963023S15155 1963 11 SP EA NOT_NAMED 1963-01-24 18:00:00 TS -20.2037 156.895 main 633 633 O________OP___ jtwc_sh SH221963 -20.2000 156.900 -1 -20.2000 156.900 TC -20.2111 156.886 7 9 12
1963023S15155 1963 11 SP EA NOT_NAMED 1963-01-24 21:00:00 TS -19.8214 157.051 main 681 681 P________PP___ SH221963 -19.8445 157.038 -1 -19.8445 157.038 TC -19.7750 157.077 7 8 33
1963023S15155 1963 11 SP EA NOT_NAMED 1963-01-24 23:00:00 TS -19.6769 157.265 main 703 692 P________PO___ SH221963 -19.7154 157.247 -1 -19.7154 157.247 TC -19.6000 157.300 7 8 66
1963023S15155 1963 11 SP EA NOT_NAMED 1963-01-25 00:00:00 TS -19.6688 157.422 main 692 618 O________OP___ jtwc_sh SH221963 -19.7000 157.400 -1 -19.7000 157.400 TC -19.6064 157.466 7 12 100
1963023S15155 1963 11 SP EA NOT_NAMED 1963-01-25 03:00:00 TS -19.8201 158.097 main 618 543 P________PP___ SH221963 -19.8457 158.097 -1 -19.8457 158.097 TC -19.7690 158.097 7 15 110
1963023S15155 1963 11 SP EA NOT_NAMED 1963-01-25 06:00:00 TS -20.1680 158.880 main 532 469 O________OP___ jtwc_sh SH221963 -20.2000 158.900 -1 -20.2000 158.900 TC -20.1039 158.839 7 16 119
1963023S15155 1963 11 SP EA NOT_NAMED 1963-01-25 09:00:00 TS -20.5940 159.560 main 459 430 P________PP___ SH221963 -20.6123 159.552 -1 -20.6123 159.552 TC -20.5574 159.574 7 15 127
1963023S15155 1963 11 SP EA NOT_NAMED 1963-01-25 11:00:00 TS -20.9225 159.954 main 421 413 P________PO___ SH221963 -20.9337 159.931 -1 -20.9337 159.931 TC -20.9000 160.000 7 15 133
1963023S15155 1963 11 SP MM NOT_NAMED 1963-01-25 12:00:00 TS -21.0912 160.133 main 415 387 O________OP___ jtwc_sh SH221963 -21.1000 160.100 -1 -21.1000 160.100 TC -21.0781 160.182 7 14 140
1963023S15155 1963 11 SP MM NOT_NAMED 1963-01-25 15:00:00 TS -21.6160 160.569 main 381 376 P________PP___ SH221963 -21.6001 160.532 -1 -21.6001 160.532 TC -21.6318 160.607 7 13 147
1963023S15155 1963 11 SP MM NOT_NAMED 1963-01-25 18:00:00 TS -22.1654 160.895 main 385 382 O________OP___ jtwc_sh SH221963 -22.1000 160.900 -1 -22.1000 160.900 TC -22.2091 160.892 7 13 158
1963023S15155 1963 11 SP MM NOT_NAMED 1963-01-25 21:00:00 NR -22.8013 161.090 main 407 407 __________P___ SH221963 -1 TC -22.8013 161.090 7 13 165
1963023S15155 1963 11 SP MM NOT_NAMED 1963-01-25 23:00:00 NR -23.2000 161.200 main 425 __________O___ SH221963 -1 TC -23.2000 161.200 7 12 165

デジタル台風データ・検索

IBTrACS Databaseについて

本データベースは、米国NOAAが公開する1842年以降の世界の熱帯低気圧のベストトラックデータアーカイブInternational Best Track Archive for Climate Stewardship (IBTrACS)を、ウェブで閲覧しやすい形式に変換したものです。

最終更新日:2021-10-08